Canisteo, Minnesota
Current Conditions -  °F | °C
As of 8:34 PM on Friday 28 Nov 2014 (Local Time) from KTOB Reporting Station
Clear Clear  
Wind Chill: 11°   Ceiling: Unl
Heat Index: 21°   Visibility: 10mi
Dew Point: 19°   Wind: 9mph
Humidity: 93%   Direction: 130°SE
Pressure: 29.76"   Gusts: NA
Location:  43.9902°N, 92.7388°W
Report Text: KTOB 290234Z AUTO 13008KT 10SM CLR M06/M07 A2976 RMK AO2
Loading
Personal Weather Stations






























Interactive Weather Map New forecast layout! Learn more

10-Day Weather Forecast

Advertisements
Track Severe Weather on mobile